Central Aleutians 230nm Sw Dutch Harbor (46072) Wave Buoy

8:50am - Mon 30th Nov 2015 All times are UTC.

  • Sig Wave height 18.0ft
  • Peak Period 16s
  • Average Period 9s
  • Wind
    29mph, 38mph gusts
  • Sea Temp 43°f
  • Air Temp 41°f
  • Sea Pressure 987.2mb

More Historic Weather Station data

Upgrade to MSW Pro to gain access to the past 30 days of data for over 8000 Wavebouys and Weather Stations around the globe.

Join Pro

Comparision Forecast

View Surf forecast
Mon 11/30 8:50am 18ft 16s 9s 29 38 mph 987.2mb 43f 41f
7:50am 17.5ft 16s 9s 27 31 mph 986.5mb 43f 41f
6:50am 18ft 16s 9s 29 36 mph 985.6mb 43f 41f
5:50am 21ft 15s 10s 25 31 mph 984.6mb 43f 41f
4:50am 18.5ft 16s 10s 25 31 mph 983.6mb 44f 41f
3:50am 19ft 16s 10s 22 29 mph 982.5mb 44f 40f
2:50am 19ft 16s 10s 20 27 mph 981.9mb 44f 41f
1:50am 20.5ft 16s 10s 20 25 mph 981.1mb 43f 42f
12:50am 20ft 16s 10s 20 22 mph 980.5mb 43f 42f
Sun 11/29 11:50pm 13.5ft 11s 8s 18 22 mph 980mb 43f 42f
10:50pm 10.5ft 9s 7s 18 20 mph 979.7mb 43f 42f
9:50pm 11ft 9s 7s 16 18 mph 979.4mb 43f 42f
8:50pm 10.5ft 10s 7s 13 16 mph 978.8mb 43f 42f
7:50pm 11ft 9s 7s 13 16 mph 978mb 43f 42f
6:50pm 10.5ft 9s 7s 11 13 mph 977.2mb 43f 42f
5:50pm 10.5ft 8s 7s 7 13 mph 976.6mb 43f 42f
4:50pm 9.5ft 8s 7s 4 7 mph 976.1mb 43f 42f
3:50pm 9ft 8s 7s 7 9 mph 976.3mb 43f 42f
2:50pm 9ft 9s 7s 4 7 mph 976.6mb 43f 41f
1:50pm 10ft 9s 7s 18 20 mph 977.2mb 43f 40f
12:50pm 10ft 9s 7s 16 20 mph 977.6mb 43f 41f
11:50am 10ft 9s 7s 16 18 mph 978.1mb 43f 43f
10:50am 10.5ft 9s 7s 16 20 mph 978.8mb 43f 43f
9:50am 11ft 8s 7s 11 16 mph 979.5mb 43f 42f
8:50am 10.5ft 9s 7s 13 16 mph 980.2mb 43f 42f
7:50am 11ft 8s 7s 13 16 mph 980.9mb 43f 43f
6:50am 10.5ft 8s 7s 20 27 mph 981.4mb 43f 43f
5:50am 11ft 8s 6s 13 16 mph 981.7mb 43f 42f
4:50am 10.5ft 7s 6s 27 34 mph 982.4mb 43f 40f
3:50am 10.5ft 7s 6s 29 36 mph 983.7mb 43f 39f
2:50am 9.5ft 6s 5s 29 36 mph 985.9mb 43f 37f
1:50am 8ft 10s 5s 29 34 mph 987.7mb 43f 37f
12:50am 8ft 9s 5s 29 34 mph 989.8mb 43f 37f
Sat 11/28 11:50pm 9ft 9s 6s 25 31 mph 992.2mb 43f 37f
10:50pm 8ft 8s 6s 22 27 mph 994.6mb 43f 36f
9:50pm 9.5ft 9s 7s 20 29 mph 996.8mb 43f 38f
8:50pm 9.5ft 10s 7s 18 22 mph 998.3mb 43f 38f
7:50pm 10ft 10s 7s 13 18 mph 999.7mb 43f 37f
6:50pm 11ft 11s 8s 13 18 mph 1000.9mb 43f 37f
5:50pm 10ft 11s 8s 9 13 mph 1002.3mb 43f 37f
4:50pm 11ft 11s 8s 9 16 mph 1003mb 43f 37f
3:50pm 11ft 10s 8s 11 16 mph 1003.8mb 43f 37f
2:50pm 10ft 11s 7s 13 18 mph 1004.5mb 43f 36f
1:50pm 11ft 10s 7s 18 22 mph 1005.3mb 43f 37f
12:50pm 13ft 11s 8s 18 25 mph 1005.4mb 43f 37f
11:50am 13.5ft 10s 7s 22 27 mph 1005.5mb 43f 36f
10:50am 15ft 11s 8s 22 27 mph 1005.7mb 43f 37f
9:50am 15.5ft 11s 8s 22 29 mph 1005.4mb 43f 37f
8:50am 15ft 11s 7s 22 27 mph 1005mb 43f 36f
7:50am 14.5ft 10s 7s 27 34 mph 1005mb 43f 37f
6:50am 14ft 10s 7s 27 34 mph 1005.1mb 43f 36f
5:50am 14ft 10s 7s 29 34 mph 1004.7mb 43f 35f
4:50am 14ft 11s 7s 29 36 mph 1004.1mb 43f 37f
3:50am 15ft 11s 7s 25 29 mph 1003.3mb 43f 38f
2:50am 15.5ft 11s 8s 25 31 mph 1002.3mb 43f 39f
1:50am 18ft 11s 8s 27 34 mph 1001.9mb 44f 39f
12:50am 21.5ft 11s 8s 31 36 mph 1001.2mb 44f 39f
Fri 11/27 11:50pm 19ft 11s 8s 34 43 mph 1000.7mb 44f 39f
10:50pm 22ft 11s 8s 36 43 mph 1000.5mb 44f 40f
9:50pm 22.5ft 11s 8s 36 45 mph 999.6mb 44f 40f
8:50pm 22.5ft 11s 8s 38 47 mph 998.3mb 44f 40f
7:50pm 23ft 11s 9s 43 54 mph 996.7mb 44f 39f
6:50pm 23ft 13s 9s 43 51 mph 995.3mb 44f 39f
5:50pm 23ft 12s 9s 43 51 mph 993.7mb 44f 40f
4:50pm 20.5ft 12s 8s 43 54 mph 992.4mb 44f 40f
3:50pm 23ft 13s 9s 40 51 mph 991.1mb 44f 38f
2:50pm 23.5ft 13s 9s 38 47 mph 990.4mb 44f 40f
1:50pm 22ft 14s 9s 38 49 mph 989.4mb 44f 40f
12:50pm 20.5ft 15s 8s 40 54 mph 987.9mb 44f 40f
11:50am 21ft 15s 8s 40 49 mph 986.2mb 43f 41f
10:50am 21.5ft 16s 8s 36 47 mph 984.4mb 43f 41f
9:50am 20ft 15s 9s 38 45 mph 982.7mb 43f 41f
8:50am 20.5ft 16s 10s 34 43 mph 981.8mb 43f 42f
7:50am 21.5ft 16s 11s 22 29 mph 980.6mb 43f 42f
6:50am 17.5ft 16s 10s 22 27 mph 979.2mb 43f 42f
5:50am 18.5ft 15s 10s 22 27 mph 978mb 43f 42f
4:50am 20.5ft 17s 11s 22 27 mph 976.8mb 43f 42f
3:50am 21.5ft 17s 11s 18 20 mph 976mb 43f 41f
2:50am 21ft 17s 11s 18 22 mph 974.9mb 42f 40f
1:50am 20.5ft 14s 11s 16 22 mph 973.9mb 42f 41f
12:50am 24ft 16s 10s 11 18 mph 973.3mb 42f 40f
Thu 11/26 11:50pm 21.5ft 17s 10s 9 16 mph 972.9mb 42f 41f
10:50pm 27ft 16s 11s 9 13 mph 972.2mb 42f 41f
9:50pm 24ft 12s 10s 9 13 mph 971.9mb 42f 41f
8:50pm 24.5ft 12s 10s 7 11 mph 971.5mb 42f 41f
7:50pm 19ft 12s 9s 2 7 mph 970.9mb 42f 41f
6:50pm 22.5ft 12s 10s 2 7 mph 970.3mb 42f 42f
5:50pm 17.5ft 12s 9s 4 9 mph 969.8mb 42f 41f
4:50pm 16.5ft 11s 9s 11 13 mph 969.4mb 42f 42f
3:50pm 18ft 11s 9s 7 9 mph 969.2mb 42f 42f
2:50pm 19ft 11s 9s 9 13 mph 969.4mb 42f 42f
1:50pm 19.5ft 11s 9s 11 16 mph 969.7mb 43f 42f
12:50pm 20.5ft 12s 9s 11 16 mph 969.8mb 43f 43f
11:50am 19.5ft 11s 8s 16 20 mph 970.3mb 43f 43f
10:50am 18.5ft 12s 9s 20 25 mph 970.8mb 43f 42f